SARE/RES METAR and TAF weather

Enter ICAO airport designator
Station Type Date Time Source
SARE METAR 2022/01/29 10:00 UTC NOAA

SARE 291000Z 16003KT 8000 NSC 17/12 Q1010 RMK PP///


Station Type Date Time Source
SARE Decoded METAR 2022/01/29 10:00 UTC NOAA

Resistencia Aero., Argentina (SARE) 27-27S 059-03W 52M
Jan 29, 2022 - 05:00 AM EST / 2022.01.29 1000 UTC
Wind: from the SSE (160 degrees) at 3 MPH (3 KT):0
Visibility: 4 mile(s):0
Temperature: 62 F (17 C)
Dew Point: 53 F (12 C)
Relative Humidity: 72%
Pressure (altimeter): 29.83 in. Hg (1010 hPa)
ob: SARE 291000Z 16003KT 8000 NSC 17/12 Q1010 RMK PP///
cycle: 10

Station Type Date Time Source
SARE TAF 2022/01/29 06:18 UTC NOAA

TAF SARE 290500Z 2906/3006 16005KT CAVOK TX35/2919Z TN16/2910Z
BECMG 2914/2916 8000 NSC

Example: see airport list